Terminal Aerodrome Forecast
Issued by NWS

Home | Current Version | Previous Version | Text Only | Print | Product List | Glossary On
Versions: 1 2 3 4 5 6 7 8 9 10 11 12 13 14 15 16 17
000
FTUS44 KOHX 012330
TAFCKV
TAF
KCKV 012330Z 0200/0224 22010KT P6SM OVC080
     FM020600 21006KT P6SM VCTS OVC030CB
     FM020900 20008KT 4SM -TSRA OVC015CB
     FM021200 24008KT 6SM -SHRA OVC030
     FM021500 22010KT P6SM BKN050
     FM021800 23012KT P6SM VCTS BKN030CB=

USA.gov is the U.S. government's official web portal to all federal, state and local government web resources and services.